sensor_id;sensor_type;location;lat;lon;timestamp;P1;durP1;ratioP1;P2;durP2;ratioP2
1977;SDS011;989;53.016;8.346;2022-08-25T00:01:19;7.20;;;4.37;;
1977;SDS011;989;53.016;8.346;2022-08-25T00:03:51;7.23;;;4.20;;
1977;SDS011;989;53.016;8.346;2022-08-25T00:06:18;7.10;;;3.87;;
1977;SDS011;989;53.016;8.346;2022-08-25T00:08:44;5.27;;;4.10;;
1977;SDS011;989;53.016;8.346;2022-08-25T00:11:14;6.50;;;3.50;;
1977;SDS011;989;53.016;8.346;2022-08-25T00:13:45;7.17;;;4.00;;
1977;SDS011;989;53.016;8.346;2022-08-25T00:16:17;5.50;;;4.07;;
1977;SDS011;989;53.016;8.346;2022-08-25T00:18:46;10.97;;;4.50;;
1977;SDS011;989;53.016;8.346;2022-08-25T00:21:16;15.23;;;5.33;;
1977;SDS011;989;53.016;8.346;2022-08-25T00:23:42;11.70;;;4.17;;
1977;SDS011;989;53.016;8.346;2022-08-25T00:26:09;5.60;;;4.10;;
1977;SDS011;989;53.016;8.346;2022-08-25T00:28:36;15.67;;;5.63;;
1977;SDS011;989;53.016;8.346;2022-08-25T00:31:04;9.30;;;4.20;;
1977;SDS011;989;53.016;8.346;2022-08-25T00:33:31;7.33;;;3.73;;
1977;SDS011;989;53.016;8.346;2022-08-25T00:35:58;6.80;;;4.67;;
1977;SDS011;989;53.016;8.346;2022-08-25T00:38:25;8.20;;;4.87;;
1977;SDS011;989;53.016;8.346;2022-08-25T00:40:51;7.67;;;4.20;;
1977;SDS011;989;53.016;8.346;2022-08-25T00:46:05;7.27;;;4.57;;
1977;SDS011;989;53.016;8.346;2022-08-25T00:48:33;11.33;;;5.03;;
1977;SDS011;989;53.016;8.346;2022-08-25T00:50:59;11.97;;;4.83;;
1977;SDS011;989;53.016;8.346;2022-08-25T00:53:27;12.47;;;5.33;;
1977;SDS011;989;53.016;8.346;2022-08-25T00:55:54;8.27;;;5.07;;
1977;SDS011;989;53.016;8.346;2022-08-25T00:58:21;8.43;;;4.20;;
1977;SDS011;989;53.016;8.346;2022-08-25T01:00:51;12.13;;;4.33;;
1977;SDS011;989;53.016;8.346;2022-08-25T01:03:20;11.10;;;5.30;;
1977;SDS011;989;53.016;8.346;2022-08-25T01:05:48;5.03;;;3.93;;
1977;SDS011;989;53.016;8.346;2022-08-25T01:08:16;17.10;;;5.40;;
1977;SDS011;989;53.016;8.346;2022-08-25T01:10:45;6.23;;;3.90;;
1977;SDS011;989;53.016;8.346;2022-08-25T01:13:17;10.37;;;5.17;;
1977;SDS011;989;53.016;8.346;2022-08-25T01:15:48;7.30;;;4.80;;
1977;SDS011;989;53.016;8.346;2022-08-25T01:18:18;6.03;;;4.30;;
1977;SDS011;989;53.016;8.346;2022-08-25T01:20:50;8.30;;;4.23;;
1977;SDS011;989;53.016;8.346;2022-08-25T01:23:18;7.27;;;4.60;;
1977;SDS011;989;53.016;8.346;2022-08-25T01:25:50;6.87;;;4.80;;
1977;SDS011;989;53.016;8.346;2022-08-25T01:28:28;9.37;;;5.33;;
1977;SDS011;989;53.016;8.346;2022-08-25T01:30:54;7.17;;;4.93;;
1977;SDS011;989;53.016;8.346;2022-08-25T01:33:20;7.70;;;5.00;;
1977;SDS011;989;53.016;8.346;2022-08-25T01:35:46;6.73;;;4.43;;
1977;SDS011;989;53.016;8.346;2022-08-25T01:38:12;9.57;;;4.47;;
1977;SDS011;989;53.016;8.346;2022-08-25T01:40:39;6.90;;;4.70;;
1977;SDS011;989;53.016;8.346;2022-08-25T01:45:35;7.83;;;5.20;;
1977;SDS011;989;53.016;8.346;2022-08-25T01:48:04;9.40;;;5.90;;
1977;SDS011;989;53.016;8.346;2022-08-25T01:50:31;28.77;;;5.87;;
1977;SDS011;989;53.016;8.346;2022-08-25T01:52:59;8.00;;;4.50;;
1977;SDS011;989;53.016;8.346;2022-08-25T01:55:45;6.90;;;4.73;;
1977;SDS011;989;53.016;8.346;2022-08-25T01:58:23;7.07;;;4.30;;
1977;SDS011;989;53.016;8.346;2022-08-25T02:00:54;9.20;;;5.03;;
1977;SDS011;989;53.016;8.346;2022-08-25T02:03:24;12.40;;;5.13;;
1977;SDS011;989;53.016;8.346;2022-08-25T02:05:50;10.63;;;5.97;;
1977;SDS011;989;53.016;8.346;2022-08-25T02:08:17;10.07;;;5.20;;
1977;SDS011;989;53.016;8.346;2022-08-25T02:10:43;9.87;;;4.93;;
1977;SDS011;989;53.016;8.346;2022-08-25T02:13:10;7.53;;;4.60;;
1977;SDS011;989;53.016;8.346;2022-08-25T02:15:40;15.53;;;4.40;;
1977;SDS011;989;53.016;8.346;2022-08-25T02:18:10;11.17;;;5.50;;
1977;SDS011;989;53.016;8.346;2022-08-25T02:20:36;13.27;;;5.40;;
1977;SDS011;989;53.016;8.346;2022-08-25T02:23:03;7.67;;;4.70;;
1977;SDS011;989;53.016;8.346;2022-08-25T02:25:29;7.90;;;5.07;;
1977;SDS011;989;53.016;8.346;2022-08-25T02:27:56;7.87;;;4.93;;
1977;SDS011;989;53.016;8.346;2022-08-25T02:30:22;12.20;;;4.90;;
1977;SDS011;989;53.016;8.346;2022-08-25T02:32:48;10.77;;;5.57;;
1977;SDS011;989;53.016;8.346;2022-08-25T02:35:15;7.90;;;5.40;;
1977;SDS011;989;53.016;8.346;2022-08-25T02:37:41;10.97;;;4.87;;
1977;SDS011;989;53.016;8.346;2022-08-25T02:40:07;9.47;;;5.30;;
1977;SDS011;989;53.016;8.346;2022-08-25T02:42:33;13.03;;;4.70;;
1977;SDS011;989;53.016;8.346;2022-08-25T02:44:59;10.03;;;5.87;;
1977;SDS011;989;53.016;8.346;2022-08-25T02:47:25;9.50;;;5.47;;
1977;SDS011;989;53.016;8.346;2022-08-25T02:49:50;11.57;;;6.60;;
1977;SDS011;989;53.016;8.346;2022-08-25T02:52:16;10.57;;;6.13;;
1977;SDS011;989;53.016;8.346;2022-08-25T02:54:42;12.33;;;5.80;;
1977;SDS011;989;53.016;8.346;2022-08-25T02:57:08;11.60;;;5.53;;
1977;SDS011;989;53.016;8.346;2022-08-25T02:59:36;11.47;;;5.83;;
1977;SDS011;989;53.016;8.346;2022-08-25T03:02:03;14.63;;;5.80;;
1977;SDS011;989;53.016;8.346;2022-08-25T03:04:29;9.80;;;5.33;;
1977;SDS011;989;53.016;8.346;2022-08-25T03:06:56;9.83;;;5.90;;
1977;SDS011;989;53.016;8.346;2022-08-25T03:09:23;10.20;;;6.00;;
1977;SDS011;989;53.016;8.346;2022-08-25T03:11:51;11.77;;;6.63;;
1977;SDS011;989;53.016;8.346;2022-08-25T03:14:16;11.60;;;6.40;;
1977;SDS011;989;53.016;8.346;2022-08-25T03:16:42;14.73;;;6.53;;
1977;SDS011;989;53.016;8.346;2022-08-25T03:19:08;7.13;;;5.27;;
1977;SDS011;989;53.016;8.346;2022-08-25T03:21:35;9.17;;;5.83;;
1977;SDS011;989;53.016;8.346;2022-08-25T03:24:02;17.57;;;5.77;;
1977;SDS011;989;53.016;8.346;2022-08-25T03:26:29;9.73;;;6.27;;
1977;SDS011;989;53.016;8.346;2022-08-25T03:29:14;9.77;;;6.10;;
1977;SDS011;989;53.016;8.346;2022-08-25T03:31:41;11.13;;;6.23;;
1977;SDS011;989;53.016;8.346;2022-08-25T03:34:09;15.90;;;6.10;;
1977;SDS011;989;53.016;8.346;2022-08-25T03:36:41;16.33;;;7.00;;
1977;SDS011;989;53.016;8.346;2022-08-25T03:39:08;10.13;;;6.03;;
1977;SDS011;989;53.016;8.346;2022-08-25T03:41:33;12.33;;;6.43;;
1977;SDS011;989;53.016;8.346;2022-08-25T03:44:01;9.50;;;6.50;;
1977;SDS011;989;53.016;8.346;2022-08-25T03:46:31;12.00;;;6.90;;
1977;SDS011;989;53.016;8.346;2022-08-25T03:49:02;11.20;;;7.30;;
1977;SDS011;989;53.016;8.346;2022-08-25T03:51:32;11.90;;;6.90;;
1977;SDS011;989;53.016;8.346;2022-08-25T03:54:04;13.63;;;7.27;;
1977;SDS011;989;53.016;8.346;2022-08-25T03:56:31;11.80;;;5.97;;
1977;SDS011;989;53.016;8.346;2022-08-25T03:58:57;9.90;;;6.57;;
1977;SDS011;989;53.016;8.346;2022-08-25T04:01:23;10.43;;;6.80;;
1977;SDS011;989;53.016;8.346;2022-08-25T04:03:49;13.17;;;6.60;;
1977;SDS011;989;53.016;8.346;2022-08-25T04:06:16;9.10;;;6.60;;
1977;SDS011;989;53.016;8.346;2022-08-25T04:08:42;14.03;;;7.90;;
1977;SDS011;989;53.016;8.346;2022-08-25T04:11:09;24.30;;;7.93;;
1977;SDS011;989;53.016;8.346;2022-08-25T04:13:39;15.40;;;7.07;;
1977;SDS011;989;53.016;8.346;2022-08-25T04:16:14;10.77;;;7.23;;
1977;SDS011;989;53.016;8.346;2022-08-25T04:18:46;15.23;;;7.00;;
1977;SDS011;989;53.016;8.346;2022-08-25T04:21:14;11.83;;;7.90;;
1977;SDS011;989;53.016;8.346;2022-08-25T04:23:42;9.97;;;7.07;;
1977;SDS011;989;53.016;8.346;2022-08-25T04:26:15;13.70;;;7.40;;
1977;SDS011;989;53.016;8.346;2022-08-25T04:28:47;12.80;;;7.67;;
1977;SDS011;989;53.016;8.346;2022-08-25T04:31:13;11.27;;;7.10;;
1977;SDS011;989;53.016;8.346;2022-08-25T04:33:41;13.83;;;8.53;;
1977;SDS011;989;53.016;8.346;2022-08-25T04:36:08;15.50;;;8.93;;
1977;SDS011;989;53.016;8.346;2022-08-25T04:38:41;16.07;;;8.70;;
1977;SDS011;989;53.016;8.346;2022-08-25T04:41:08;18.67;;;7.40;;
1977;SDS011;989;53.016;8.346;2022-08-25T04:43:37;16.87;;;9.03;;
1977;SDS011;989;53.016;8.346;2022-08-25T04:46:09;19.33;;;7.53;;
1977;SDS011;989;53.016;8.346;2022-08-25T04:49:05;22.67;;;8.70;;
1977;SDS011;989;53.016;8.346;2022-08-25T04:51:42;15.33;;;8.40;;
1977;SDS011;989;53.016;8.346;2022-08-25T04:54:09;14.67;;;8.80;;
1977;SDS011;989;53.016;8.346;2022-08-25T04:56:40;12.00;;;8.63;;
1977;SDS011;989;53.016;8.346;2022-08-25T04:59:08;12.10;;;9.20;;
1977;SDS011;989;53.016;8.346;2022-08-25T05:01:38;18.27;;;9.30;;
1977;SDS011;989;53.016;8.346;2022-08-25T05:04:06;20.03;;;9.23;;
1977;SDS011;989;53.016;8.346;2022-08-25T05:06:34;13.53;;;9.00;;
1977;SDS011;989;53.016;8.346;2022-08-25T05:09:00;24.13;;;10.13;;
1977;SDS011;989;53.016;8.346;2022-08-25T05:11:28;14.53;;;9.87;;
1977;SDS011;989;53.016;8.346;2022-08-25T05:13:56;13.80;;;10.00;;
1977;SDS011;989;53.016;8.346;2022-08-25T05:16:24;20.30;;;10.30;;
1977;SDS011;989;53.016;8.346;2022-08-25T05:18:51;18.87;;;11.00;;
1977;SDS011;989;53.016;8.346;2022-08-25T05:21:19;34.63;;;10.67;;
1977;SDS011;989;53.016;8.346;2022-08-25T05:23:48;15.47;;;10.70;;
1977;SDS011;989;53.016;8.346;2022-08-25T05:26:18;15.87;;;11.13;;
1977;SDS011;989;53.016;8.346;2022-08-25T05:28:46;21.73;;;11.20;;
1977;SDS011;989;53.016;8.346;2022-08-25T05:31:14;19.40;;;12.57;;
1977;SDS011;989;53.016;8.346;2022-08-25T05:33:41;16.03;;;10.37;;
1977;SDS011;989;53.016;8.346;2022-08-25T05:36:08;25.80;;;11.67;;
1977;SDS011;989;53.016;8.346;2022-08-25T05:38:37;19.43;;;12.57;;
1977;SDS011;989;53.016;8.346;2022-08-25T05:41:06;23.13;;;11.30;;
1977;SDS011;989;53.016;8.346;2022-08-25T05:43:36;19.13;;;11.13;;
1977;SDS011;989;53.016;8.346;2022-08-25T05:46:04;17.30;;;12.10;;
1977;SDS011;989;53.016;8.346;2022-08-25T05:48:30;18.20;;;11.90;;
1977;SDS011;989;53.016;8.346;2022-08-25T05:50:57;15.60;;;11.47;;
1977;SDS011;989;53.016;8.346;2022-08-25T05:53:25;19.40;;;11.67;;
1977;SDS011;989;53.016;8.346;2022-08-25T05:55:53;18.53;;;11.67;;
1977;SDS011;989;53.016;8.346;2022-08-25T05:58:21;22.37;;;12.40;;
1977;SDS011;989;53.016;8.346;2022-08-25T06:00:48;18.53;;;11.60;;
1977;SDS011;989;53.016;8.346;2022-08-25T06:03:14;26.80;;;12.27;;
1977;SDS011;989;53.016;8.346;2022-08-25T06:05:40;19.43;;;11.90;;
1977;SDS011;989;53.016;8.346;2022-08-25T06:08:06;20.47;;;12.90;;
1977;SDS011;989;53.016;8.346;2022-08-25T06:10:32;19.10;;;13.33;;
1977;SDS011;989;53.016;8.346;2022-08-25T06:12:58;26.33;;;12.47;;
1977;SDS011;989;53.016;8.346;2022-08-25T06:15:24;19.83;;;12.07;;
1977;SDS011;989;53.016;8.346;2022-08-25T06:17:51;24.23;;;11.80;;
1977;SDS011;989;53.016;8.346;2022-08-25T06:20:18;28.83;;;12.37;;
1977;SDS011;989;53.016;8.346;2022-08-25T06:22:47;27.47;;;13.07;;
1977;SDS011;989;53.016;8.346;2022-08-25T06:25:15;17.20;;;12.50;;
1977;SDS011;989;53.016;8.346;2022-08-25T06:27:43;22.40;;;11.80;;
1977;SDS011;989;53.016;8.346;2022-08-25T06:30:10;25.80;;;12.90;;
1977;SDS011;989;53.016;8.346;2022-08-25T06:32:40;29.17;;;11.87;;
1977;SDS011;989;53.016;8.346;2022-08-25T06:35:09;18.30;;;12.40;;
1977;SDS011;989;53.016;8.346;2022-08-25T06:37:38;20.80;;;12.47;;
1977;SDS011;989;53.016;8.346;2022-08-25T06:40:08;17.40;;;11.40;;
1977;SDS011;989;53.016;8.346;2022-08-25T06:42:35;19.77;;;12.53;;
1977;SDS011;989;53.016;8.346;2022-08-25T06:45:02;19.77;;;11.87;;
1977;SDS011;989;53.016;8.346;2022-08-25T06:47:29;22.40;;;12.87;;
1977;SDS011;989;53.016;8.346;2022-08-25T06:49:54;21.03;;;12.10;;
1977;SDS011;989;53.016;8.346;2022-08-25T06:52:20;20.30;;;12.43;;
1977;SDS011;989;53.016;8.346;2022-08-25T06:54:46;16.80;;;10.53;;
1977;SDS011;989;53.016;8.346;2022-08-25T06:57:12;22.40;;;12.30;;
1977;SDS011;989;53.016;8.346;2022-08-25T06:59:37;20.07;;;12.70;;
1977;SDS011;989;53.016;8.346;2022-08-25T07:02:04;25.37;;;13.80;;
1977;SDS011;989;53.016;8.346;2022-08-25T07:04:31;19.67;;;11.77;;
1977;SDS011;989;53.016;8.346;2022-08-25T07:06:58;23.53;;;12.60;;
1977;SDS011;989;53.016;8.346;2022-08-25T07:09:25;16.03;;;11.30;;
1977;SDS011;989;53.016;8.346;2022-08-25T07:11:50;19.13;;;12.03;;
1977;SDS011;989;53.016;8.346;2022-08-25T07:14:17;24.53;;;12.60;;
1977;SDS011;989;53.016;8.346;2022-08-25T07:16:43;34.80;;;11.07;;
1977;SDS011;989;53.016;8.346;2022-08-25T07:19:09;23.63;;;12.23;;
1977;SDS011;989;53.016;8.346;2022-08-25T07:21:37;17.63;;;11.23;;
1977;SDS011;989;53.016;8.346;2022-08-25T07:24:09;15.23;;;9.43;;
1977;SDS011;989;53.016;8.346;2022-08-25T07:26:38;19.47;;;11.43;;
1977;SDS011;989;53.016;8.346;2022-08-25T07:29:11;17.57;;;11.30;;
1977;SDS011;989;53.016;8.346;2022-08-25T07:31:49;15.30;;;11.50;;
1977;SDS011;989;53.016;8.346;2022-08-25T07:34:15;16.93;;;10.80;;
1977;SDS011;989;53.016;8.346;2022-08-25T07:37:00;18.97;;;11.23;;
1977;SDS011;989;53.016;8.346;2022-08-25T07:39:28;14.93;;;10.43;;
1977;SDS011;989;53.016;8.346;2022-08-25T07:41:55;18.70;;;10.00;;
1977;SDS011;989;53.016;8.346;2022-08-25T07:44:21;16.57;;;10.80;;
1977;SDS011;989;53.016;8.346;2022-08-25T07:46:49;21.27;;;10.20;;
1977;SDS011;989;53.016;8.346;2022-08-25T07:49:15;16.37;;;9.90;;
1977;SDS011;989;53.016;8.346;2022-08-25T07:51:43;16.87;;;9.70;;
1977;SDS011;989;53.016;8.346;2022-08-25T07:54:10;15.43;;;10.23;;
1977;SDS011;989;53.016;8.346;2022-08-25T07:56:35;17.87;;;9.67;;
1977;SDS011;989;53.016;8.346;2022-08-25T07:59:01;20.83;;;10.23;;
1977;SDS011;989;53.016;8.346;2022-08-25T08:01:27;16.20;;;9.77;;
1977;SDS011;989;53.016;8.346;2022-08-25T08:03:53;16.07;;;10.50;;
1977;SDS011;989;53.016;8.346;2022-08-25T08:06:20;15.50;;;9.07;;
1977;SDS011;989;53.016;8.346;2022-08-25T08:08:48;10.73;;;8.80;;
1977;SDS011;989;53.016;8.346;2022-08-25T08:11:16;14.93;;;8.80;;
1977;SDS011;989;53.016;8.346;2022-08-25T08:13:50;18.53;;;10.17;;
1977;SDS011;989;53.016;8.346;2022-08-25T08:16:19;10.60;;;8.50;;
1977;SDS011;989;53.016;8.346;2022-08-25T08:18:48;16.50;;;10.37;;
1977;SDS011;989;53.016;8.346;2022-08-25T08:21:15;14.50;;;9.50;;
1977;SDS011;989;53.016;8.346;2022-08-25T08:23:47;14.23;;;9.00;;
1977;SDS011;989;53.016;8.346;2022-08-25T08:26:15;15.67;;;10.47;;
1977;SDS011;989;53.016;8.346;2022-08-25T08:28:42;13.00;;;8.27;;
1977;SDS011;989;53.016;8.346;2022-08-25T08:31:08;16.60;;;8.43;;
1977;SDS011;989;53.016;8.346;2022-08-25T08:33:34;16.90;;;8.70;;
1977;SDS011;989;53.016;8.346;2022-08-25T08:36:01;19.20;;;8.17;;
1977;SDS011;989;53.016;8.346;2022-08-25T08:38:36;8.70;;;7.40;;
1977;SDS011;989;53.016;8.346;2022-08-25T08:41:11;15.53;;;8.17;;
1977;SDS011;989;53.016;8.346;2022-08-25T08:44:40;12.17;;;8.40;;
1977;SDS011;989;53.016;8.346;2022-08-25T08:47:11;16.23;;;8.97;;
1977;SDS011;989;53.016;8.346;2022-08-25T08:50:30;12.63;;;7.97;;
1977;SDS011;989;53.016;8.346;2022-08-25T08:53:23;13.60;;;7.67;;
1977;SDS011;989;53.016;8.346;2022-08-25T08:56:08;14.07;;;7.27;;
1977;SDS011;989;53.016;8.346;2022-08-25T08:58:51;15.63;;;8.00;;
1977;SDS011;989;53.016;8.346;2022-08-25T09:01:48;20.17;;;7.90;;
1977;SDS011;989;53.016;8.346;2022-08-25T09:04:34;12.53;;;7.80;;
1977;SDS011;989;53.016;8.346;2022-08-25T09:07:21;11.70;;;8.33;;
1977;SDS011;989;53.016;8.346;2022-08-25T09:09:54;9.93;;;7.27;;
1977;SDS011;989;53.016;8.346;2022-08-25T09:15:19;11.27;;;7.27;;
1977;SDS011;989;53.016;8.346;2022-08-25T09:24:14;12.90;;;7.60;;
1977;SDS011;989;53.016;8.346;2022-08-25T09:27:12;15.13;;;7.60;;
1977;SDS011;989;53.016;8.346;2022-08-25T09:30:07;15.63;;;7.30;;
1977;SDS011;989;53.016;8.346;2022-08-25T09:32:42;11.07;;;7.33;;
1977;SDS011;989;53.016;8.346;2022-08-25T09:35:28;13.50;;;6.63;;
1977;SDS011;989;53.016;8.346;2022-08-25T09:37:57;11.70;;;6.77;;
1977;SDS011;989;53.016;8.346;2022-08-25T09:40:31;9.43;;;7.17;;
1977;SDS011;989;53.016;8.346;2022-08-25T09:43:03;8.10;;;6.83;;
1977;SDS011;989;53.016;8.346;2022-08-25T09:45:46;14.07;;;7.37;;
1977;SDS011;989;53.016;8.346;2022-08-25T09:48:30;11.63;;;6.80;;
1977;SDS011;989;53.016;8.346;2022-08-25T09:51:09;11.53;;;7.00;;
1977;SDS011;989;53.016;8.346;2022-08-25T09:53:53;8.93;;;6.53;;
1977;SDS011;989;53.016;8.346;2022-08-25T09:56:48;9.07;;;6.53;;
1977;SDS011;989;53.016;8.346;2022-08-25T09:59:18;9.47;;;5.50;;
1977;SDS011;989;53.016;8.346;2022-08-25T10:01:53;8.93;;;5.60;;
1977;SDS011;989;53.016;8.346;2022-08-25T10:04:26;11.50;;;5.90;;
1977;SDS011;989;53.016;8.346;2022-08-25T10:06:58;8.03;;;4.93;;
1977;SDS011;989;53.016;8.346;2022-08-25T10:09:30;13.03;;;6.20;;
1977;SDS011;989;53.016;8.346;2022-08-25T10:12:20;9.57;;;5.30;;
1977;SDS011;989;53.016;8.346;2022-08-25T10:14:54;6.93;;;4.90;;
1977;SDS011;989;53.016;8.346;2022-08-25T10:17:30;9.53;;;5.83;;
1977;SDS011;989;53.016;8.346;2022-08-25T10:22:35;9.40;;;5.30;;
1977;SDS011;989;53.016;8.346;2022-08-25T10:25:06;8.37;;;5.80;;
1977;SDS011;989;53.016;8.346;2022-08-25T10:35:34;8.00;;;5.43;;
1977;SDS011;989;53.016;8.346;2022-08-25T10:38:27;10.90;;;5.13;;
1977;SDS011;989;53.016;8.346;2022-08-25T10:41:26;13.00;;;5.50;;
1977;SDS011;989;53.016;8.346;2022-08-25T10:44:32;7.13;;;4.60;;
1977;SDS011;989;53.016;8.346;2022-08-25T10:50:45;5.63;;;4.57;;
1977;SDS011;989;53.016;8.346;2022-08-25T10:53:34;9.00;;;5.37;;
1977;SDS011;989;53.016;8.346;2022-08-25T10:56:14;6.30;;;5.67;;
1977;SDS011;989;53.016;8.346;2022-08-25T11:01:32;9.50;;;5.60;;
1977;SDS011;989;53.016;8.346;2022-08-25T11:04:07;7.70;;;5.90;;
1977;SDS011;989;53.016;8.346;2022-08-25T11:09:36;9.30;;;5.47;;
1977;SDS011;989;53.016;8.346;2022-08-25T11:12:13;10.93;;;5.60;;
1977;SDS011;989;53.016;8.346;2022-08-25T11:14:51;8.47;;;5.17;;
1977;SDS011;989;53.016;8.346;2022-08-25T11:20:06;8.80;;;5.70;;
1977;SDS011;989;53.016;8.346;2022-08-25T11:22:41;11.50;;;6.07;;
1977;SDS011;989;53.016;8.346;2022-08-25T11:27:56;8.07;;;5.50;;
1977;SDS011;989;53.016;8.346;2022-08-25T11:30:29;12.57;;;5.90;;
1977;SDS011;989;53.016;8.346;2022-08-25T11:32:55;6.10;;;5.50;;
1977;SDS011;989;53.016;8.346;2022-08-25T11:35:31;9.73;;;5.97;;
1977;SDS011;989;53.016;8.346;2022-08-25T11:38:24;11.00;;;6.00;;
1977;SDS011;989;53.016;8.346;2022-08-25T11:49:59;9.53;;;6.70;;
1977;SDS011;989;53.016;8.346;2022-08-25T11:52:52;11.00;;;5.70;;
1977;SDS011;989;53.016;8.346;2022-08-25T11:55:30;8.47;;;5.93;;
1977;SDS011;989;53.016;8.346;2022-08-25T12:01:00;9.40;;;5.80;;
1977;SDS011;989;53.016;8.346;2022-08-25T12:14:11;5.73;;;5.10;;
1977;SDS011;989;53.016;8.346;2022-08-25T12:27:25;10.80;;;5.73;;
1977;SDS011;989;53.016;8.346;2022-08-25T12:36:04;8.63;;;5.27;;
1977;SDS011;989;53.016;8.346;2022-08-25T12:38:46;12.10;;;6.00;;
1977;SDS011;989;53.016;8.346;2022-08-25T12:41:17;11.77;;;6.33;;
1977;SDS011;989;53.016;8.346;2022-08-25T12:43:48;7.70;;;6.80;;
1977;SDS011;989;53.016;8.346;2022-08-25T12:48:52;10.10;;;6.03;;
1977;SDS011;989;53.016;8.346;2022-08-25T12:51:49;14.87;;;7.03;;
1977;SDS011;989;53.016;8.346;2022-08-25T12:56:54;18.80;;;5.90;;
1977;SDS011;989;53.016;8.346;2022-08-25T12:59:36;8.10;;;6.13;;
1977;SDS011;989;53.016;8.346;2022-08-25T13:05:29;14.57;;;6.40;;
1977;SDS011;989;53.016;8.346;2022-08-25T13:08:40;11.10;;;5.57;;
1977;SDS011;989;53.016;8.346;2022-08-25T13:11:56;9.83;;;5.73;;
1977;SDS011;989;53.016;8.346;2022-08-25T13:14:36;7.83;;;5.50;;
1977;SDS011;989;53.016;8.346;2022-08-25T13:17:03;14.63;;;6.47;;
1977;SDS011;989;53.016;8.346;2022-08-25T13:19:30;16.07;;;6.30;;
1977;SDS011;989;53.016;8.346;2022-08-25T13:21:57;18.17;;;6.80;;
1977;SDS011;989;53.016;8.346;2022-08-25T13:26:55;7.97;;;5.50;;
1977;SDS011;989;53.016;8.346;2022-08-25T13:29:25;9.23;;;6.27;;
1977;SDS011;989;53.016;8.346;2022-08-25T13:32:00;6.23;;;5.07;;
1977;SDS011;989;53.016;8.346;2022-08-25T13:34:36;20.97;;;6.27;;
1977;SDS011;989;53.016;8.346;2022-08-25T13:37:06;13.07;;;5.87;;
1977;SDS011;989;53.016;8.346;2022-08-25T13:40:10;19.00;;;6.70;;
1977;SDS011;989;53.016;8.346;2022-08-25T13:42:58;9.53;;;5.90;;
1977;SDS011;989;53.016;8.346;2022-08-25T13:45:37;11.03;;;5.87;;
1977;SDS011;989;53.016;8.346;2022-08-25T13:48:10;8.40;;;6.27;;
1977;SDS011;989;53.016;8.346;2022-08-25T13:50:41;9.00;;;5.97;;
1977;SDS011;989;53.016;8.346;2022-08-25T13:53:40;12.90;;;6.40;;
1977;SDS011;989;53.016;8.346;2022-08-25T13:56:00;8.77;;;5.60;;
1977;SDS011;989;53.016;8.346;2022-08-25T13:58:31;7.13;;;5.80;;
1977;SDS011;989;53.016;8.346;2022-08-25T14:03:33;14.43;;;6.80;;
1977;SDS011;989;53.016;8.346;2022-08-25T14:08:41;15.07;;;6.50;;
1977;SDS011;989;53.016;8.346;2022-08-25T14:11:31;12.20;;;5.87;;
1977;SDS011;989;53.016;8.346;2022-08-25T14:14:06;7.53;;;5.40;;
1977;SDS011;989;53.016;8.346;2022-08-25T14:19:34;14.00;;;6.97;;
1977;SDS011;989;53.016;8.346;2022-08-25T14:22:09;14.37;;;6.00;;
1977;SDS011;989;53.016;8.346;2022-08-25T14:24:38;13.73;;;6.90;;
1977;SDS011;989;53.016;8.346;2022-08-25T14:27:04;11.23;;;6.70;;
1977;SDS011;989;53.016;8.346;2022-08-25T14:29:30;16.40;;;6.47;;
1977;SDS011;989;53.016;8.346;2022-08-25T14:31:56;10.17;;;6.50;;
1977;SDS011;989;53.016;8.346;2022-08-25T14:34:25;12.27;;;6.30;;
1977;SDS011;989;53.016;8.346;2022-08-25T14:36:57;6.10;;;4.93;;
1977;SDS011;989;53.016;8.346;2022-08-25T14:39:24;9.10;;;6.23;;
1977;SDS011;989;53.016;8.346;2022-08-25T14:41:50;6.00;;;5.10;;
1977;SDS011;989;53.016;8.346;2022-08-25T14:44:16;8.07;;;5.83;;
1977;SDS011;989;53.016;8.346;2022-08-25T14:46:52;10.33;;;6.53;;
1977;SDS011;989;53.016;8.346;2022-08-25T14:49:24;8.33;;;6.37;;
1977;SDS011;989;53.016;8.346;2022-08-25T14:52:00;11.27;;;5.97;;
1977;SDS011;989;53.016;8.346;2022-08-25T14:54:33;9.60;;;5.77;;
1977;SDS011;989;53.016;8.346;2022-08-25T14:56:59;9.90;;;6.00;;
1977;SDS011;989;53.016;8.346;2022-08-25T14:59:25;11.60;;;6.33;;
1977;SDS011;989;53.016;8.346;2022-08-25T15:01:51;11.90;;;5.33;;
1977;SDS011;989;53.016;8.346;2022-08-25T15:04:18;14.10;;;6.10;;
1977;SDS011;989;53.016;8.346;2022-08-25T15:06:48;8.73;;;5.70;;
1977;SDS011;989;53.016;8.346;2022-08-25T15:09:19;13.50;;;5.43;;
1977;SDS011;989;53.016;8.346;2022-08-25T15:11:46;9.20;;;5.07;;
1977;SDS011;989;53.016;8.346;2022-08-25T15:14:16;22.43;;;6.50;;
1977;SDS011;989;53.016;8.346;2022-08-25T15:16:47;11.33;;;5.40;;
1977;SDS011;989;53.016;8.346;2022-08-25T15:19:16;11.40;;;6.50;;
1977;SDS011;989;53.016;8.346;2022-08-25T15:21:45;9.20;;;5.83;;
1977;SDS011;989;53.016;8.346;2022-08-25T15:24:12;18.17;;;6.00;;
1977;SDS011;989;53.016;8.346;2022-08-25T15:26:41;22.37;;;8.00;;
1977;SDS011;989;53.016;8.346;2022-08-25T15:29:15;17.93;;;6.30;;
1977;SDS011;989;53.016;8.346;2022-08-25T15:31:42;7.73;;;5.80;;
1977;SDS011;989;53.016;8.346;2022-08-25T15:34:09;21.33;;;6.67;;
1977;SDS011;989;53.016;8.346;2022-08-25T15:36:35;8.73;;;5.60;;
1977;SDS011;989;53.016;8.346;2022-08-25T15:39:02;8.07;;;5.10;;
1977;SDS011;989;53.016;8.346;2022-08-25T15:41:28;8.90;;;6.20;;
1977;SDS011;989;53.016;8.346;2022-08-25T15:43:54;9.80;;;6.00;;
1977;SDS011;989;53.016;8.346;2022-08-25T15:46:22;10.27;;;6.03;;
1977;SDS011;989;53.016;8.346;2022-08-25T15:48:50;7.03;;;5.90;;
1977;SDS011;989;53.016;8.346;2022-08-25T15:51:16;8.87;;;5.80;;
1977;SDS011;989;53.016;8.346;2022-08-25T15:53:43;8.00;;;5.10;;
1977;SDS011;989;53.016;8.346;2022-08-25T15:56:09;12.43;;;5.43;;
1977;SDS011;989;53.016;8.346;2022-08-25T15:58:41;9.00;;;5.27;;
1977;SDS011;989;53.016;8.346;2022-08-25T16:01:11;7.27;;;5.50;;
1977;SDS011;989;53.016;8.346;2022-08-25T16:03:39;11.70;;;5.80;;
1977;SDS011;989;53.016;8.346;2022-08-25T16:06:05;14.60;;;6.00;;
1977;SDS011;989;53.016;8.346;2022-08-25T16:08:31;8.60;;;5.90;;
1977;SDS011;989;53.016;8.346;2022-08-25T16:10:58;10.00;;;5.77;;
1977;SDS011;989;53.016;8.346;2022-08-25T16:13:23;10.00;;;5.60;;
1977;SDS011;989;53.016;8.346;2022-08-25T16:15:49;6.10;;;5.40;;
1977;SDS011;989;53.016;8.346;2022-08-25T16:18:15;8.37;;;6.40;;
1977;SDS011;989;53.016;8.346;2022-08-25T16:20:42;9.73;;;7.13;;
1977;SDS011;989;53.016;8.346;2022-08-25T16:23:10;12.40;;;5.97;;
1977;SDS011;989;53.016;8.346;2022-08-25T16:25:39;8.73;;;5.53;;
1977;SDS011;989;53.016;8.346;2022-08-25T16:28:08;12.17;;;6.30;;
1977;SDS011;989;53.016;8.346;2022-08-25T16:30:36;9.13;;;6.30;;
1977;SDS011;989;53.016;8.346;2022-08-25T16:33:04;9.17;;;6.37;;
1977;SDS011;989;53.016;8.346;2022-08-25T16:35:31;20.90;;;6.77;;
1977;SDS011;989;53.016;8.346;2022-08-25T16:37:57;10.73;;;6.50;;
1977;SDS011;989;53.016;8.346;2022-08-25T16:40:23;7.87;;;5.87;;
1977;SDS011;989;53.016;8.346;2022-08-25T16:42:50;18.90;;;7.90;;
1977;SDS011;989;53.016;8.346;2022-08-25T16:45:17;12.27;;;7.00;;
1977;SDS011;989;53.016;8.346;2022-08-25T16:47:43;10.87;;;6.70;;
1977;SDS011;989;53.016;8.346;2022-08-25T16:50:10;9.90;;;6.17;;
1977;SDS011;989;53.016;8.346;2022-08-25T16:52:37;15.80;;;6.70;;
1977;SDS011;989;53.016;8.346;2022-08-25T16:55:21;9.80;;;6.90;;
1977;SDS011;989;53.016;8.346;2022-08-25T16:57:48;15.80;;;6.07;;
1977;SDS011;989;53.016;8.346;2022-08-25T17:00:20;10.37;;;6.60;;
1977;SDS011;989;53.016;8.346;2022-08-25T17:02:49;14.80;;;7.10;;
1977;SDS011;989;53.016;8.346;2022-08-25T17:05:19;12.10;;;6.07;;
1977;SDS011;989;53.016;8.346;2022-08-25T17:07:45;9.20;;;5.80;;
1977;SDS011;989;53.016;8.346;2022-08-25T17:10:38;10.77;;;6.60;;
1977;SDS011;989;53.016;8.346;2022-08-25T17:13:06;12.73;;;6.20;;
1977;SDS011;989;53.016;8.346;2022-08-25T17:15:33;14.03;;;7.20;;
1977;SDS011;989;53.016;8.346;2022-08-25T17:17:59;12.07;;;5.97;;
1977;SDS011;989;53.016;8.346;2022-08-25T17:20:24;12.63;;;6.83;;